createdAt,value
2018-02-11T00:03:33.893Z,95.90
2018-02-11T00:08:17.236Z,95.90
2018-02-11T00:13:01.164Z,95.90
2018-02-11T00:17:44.505Z,96.00
2018-02-11T00:22:27.812Z,96.00
2018-02-11T00:27:11.147Z,96.10
2018-02-11T00:31:55.266Z,96.00
2018-02-11T00:36:38.580Z,96.00
2018-02-11T00:41:21.966Z,95.90
2018-02-11T00:46:05.365Z,96.00
2018-02-11T00:50:48.718Z,95.90
2018-02-11T00:55:32.109Z,95.70
2018-02-11T01:00:16.191Z,95.70
2018-02-11T01:04:59.528Z,95.70
2018-02-11T01:09:42.868Z,96.00
2018-02-11T01:14:26.214Z,95.90
2018-02-11T01:19:09.582Z,95.60
2018-02-11T01:23:52.931Z,95.80
2018-02-11T01:28:36.257Z,95.70
2018-02-11T01:33:19.564Z,96.00
2018-02-11T01:38:02.879Z,95.90
2018-02-11T01:42:46.991Z,96.20
2018-02-11T01:47:30.343Z,96.20
2018-02-11T01:52:13.692Z,96.80
2018-02-11T01:56:57.035Z,97.10
2018-02-11T02:01:40.380Z,97.60
2018-02-11T02:06:23.724Z,97.60
2018-02-11T02:11:07.109Z,97.90
2018-02-11T02:15:50.465Z,98.00
2018-02-11T02:20:33.799Z,98.50
2018-02-11T02:25:17.094Z,98.50
2018-02-11T02:30:00.400Z,98.30
2018-02-11T02:34:43.734Z,97.90
2018-02-11T02:39:27.079Z,97.80
2018-02-11T02:44:10.398Z,97.80
2018-02-11T02:48:53.747Z,97.60
2018-02-11T02:53:37.119Z,97.70
2018-02-11T02:58:20.438Z,97.60
2018-02-11T03:03:03.799Z,97.40
2018-02-11T03:07:47.147Z,97.20
2018-02-11T03:12:30.495Z,97.30
2018-02-11T03:17:14.083Z,97.40
2018-02-11T03:21:57.432Z,97.20
2018-02-11T03:26:40.733Z,97.30
2018-02-11T03:31:24.857Z,97.20
2018-02-11T03:36:08.191Z,97.20
2018-02-11T03:40:51.918Z,97.30
2018-02-11T03:45:35.233Z,97.30
2018-02-11T03:50:18.573Z,97.50
2018-02-11T03:55:01.894Z,97.40
2018-02-11T03:59:45.239Z,97.50
2018-02-11T04:04:28.571Z,97.40
2018-02-11T04:09:12.690Z,97.40
2018-02-11T04:13:55.990Z,97.40
2018-02-11T04:18:40.083Z,97.10
2018-02-11T04:23:23.402Z,97.10
2018-02-11T04:28:06.766Z,96.80
2018-02-11T04:32:50.153Z,96.70
2018-02-11T04:37:34.320Z,96.20
2018-02-11T04:42:18.379Z,96.30
2018-02-11T04:47:02.466Z,96.70
2018-02-11T04:51:45.836Z,96.70
2018-02-11T04:56:29.180Z,97.00
2018-02-11T05:01:12.502Z,97.20
2018-02-11T05:05:55.835Z,97.40
2018-02-11T05:10:39.206Z,97.30
2018-02-11T05:15:22.549Z,96.90
2018-02-11T05:20:06.199Z,96.70
2018-02-11T05:24:49.556Z,96.40
2018-02-11T05:29:32.876Z,96.30
2018-02-11T05:34:16.179Z,96.20
2018-02-11T05:38:59.518Z,96.20
2018-02-11T05:43:42.878Z,96.40
2018-02-11T05:48:26.245Z,96.50
2018-02-11T05:53:09.602Z,96.50
2018-02-11T05:57:52.893Z,96.30
2018-02-11T06:02:36.224Z,96.40
2018-02-11T06:07:19.598Z,96.30
2018-02-11T06:12:02.914Z,96.40
2018-02-11T06:16:46.248Z,96.50
2018-02-11T06:21:29.609Z,96.50
2018-02-11T06:26:12.938Z,96.50
2018-02-11T06:30:56.250Z,95.90
2018-02-11T06:35:39.627Z,95.60
2018-02-11T06:40:22.960Z,95.40
2018-02-11T06:45:07.115Z,94.90
2018-02-11T06:49:50.444Z,94.80
2018-02-11T06:54:33.773Z,94.80
2018-02-11T06:59:17.103Z,95.00
2018-02-11T07:04:00.491Z,95.20
2018-02-11T07:08:43.835Z,94.70
2018-02-11T07:13:27.984Z,94.30
2018-02-11T07:18:11.338Z,94.30
2018-02-11T07:22:54.699Z,93.70
2018-02-11T07:27:38.869Z,92.40
2018-02-11T07:32:22.323Z,92.40
2018-02-11T07:37:06.486Z,91.40
2018-02-11T07:41:49.871Z,91.40
2018-02-11T07:46:33.639Z,91.10
2018-02-11T07:51:17.067Z,90.30
2018-02-11T07:56:00.405Z,89.20
2018-02-11T08:00:44.393Z,88.70
2018-02-11T08:05:28.015Z,88.20
2018-02-11T08:10:12.130Z,89.60
2018-02-11T08:14:55.994Z,89.50
2018-02-11T08:19:39.454Z,90.00
2018-02-11T08:24:22.771Z,89.20
2018-02-11T08:29:06.105Z,88.80
2018-02-11T08:33:49.424Z,88.10
2018-02-11T08:38:32.866Z,86.60
2018-02-11T08:43:16.486Z,87.20
2018-02-11T08:47:59.970Z,86.50
2018-02-11T08:52:43.433Z,86.30
2018-02-11T08:57:27.697Z,85.30
2018-02-11T09:02:11.044Z,85.30
2018-02-11T09:06:54.454Z,85.80
2018-02-11T09:11:37.871Z,87.20
2018-02-11T09:16:21.212Z,85.80
2018-02-11T09:21:05.357Z,85.00
2018-02-11T09:25:49.579Z,84.20
2018-02-11T09:30:33.114Z,84.10
2018-02-11T09:35:16.545Z,83.20
2018-02-11T09:40:00.766Z,83.20
2018-02-11T09:44:44.213Z,83.20
2018-02-11T09:49:27.749Z,82.30
2018-02-11T09:54:11.175Z,82.70
2018-02-11T09:58:57.128Z,80.60
2018-02-11T10:03:41.596Z,78.80
2018-02-11T10:08:25.359Z,79.40
2018-02-11T10:13:08.745Z,80.10
2018-02-11T10:17:52.234Z,80.80
2018-02-11T10:22:35.696Z,79.80
2018-02-11T10:27:20.010Z,80.00
2018-02-11T10:32:04.265Z,78.80
2018-02-11T10:41:46.556Z,79.00
2018-02-11T10:46:31.102Z,78.20
2018-02-11T10:51:17.545Z,79.00
2018-02-11T10:56:25.577Z,79.00
2018-02-11T11:01:16.040Z,80.20
2018-02-11T11:05:59.697Z,79.90
2018-02-11T11:10:43.941Z,78.50
2018-02-11T11:15:28.115Z,79.40
2018-02-11T11:20:12.303Z,78.70
2018-02-11T11:24:55.941Z,78.60
2018-02-11T11:29:39.318Z,78.50
2018-02-11T11:34:22.655Z,78.20
2018-02-11T11:39:06.278Z,76.00
2018-02-11T11:43:49.691Z,76.80
2018-02-11T11:48:33.826Z,78.80
2018-02-11T11:53:17.230Z,78.70
2018-02-11T11:58:00.585Z,79.00
2018-02-11T12:02:46.450Z,79.10
2018-02-11T12:07:29.956Z,79.00
2018-02-11T12:12:13.280Z,79.30
2018-02-11T12:16:56.655Z,79.80
2018-02-11T12:21:43.761Z,79.60
2018-02-11T12:26:27.374Z,79.50
2018-02-11T12:31:10.899Z,78.10
2018-02-11T12:35:54.348Z,77.70
2018-02-11T12:40:53.794Z,77.30
2018-02-11T12:45:41.774Z,77.40
2018-02-11T12:50:25.221Z,75.80
2018-02-11T12:55:09.324Z,77.00
2018-02-11T12:59:54.630Z,76.90
2018-02-11T13:04:39.181Z,76.60
2018-02-11T13:09:22.455Z,78.20
2018-02-11T13:14:05.948Z,77.40
2018-02-11T13:18:49.263Z,76.60
2018-02-11T13:23:32.602Z,77.80
2018-02-11T13:28:19.993Z,77.90
2018-02-11T13:33:03.339Z,77.80
2018-02-11T13:37:46.692Z,77.20
2018-02-11T13:42:30.072Z,82.40
2018-02-11T13:47:14.279Z,85.50
2018-02-11T13:51:57.642Z,85.40
2018-02-11T13:56:41.262Z,86.40
2018-02-11T14:01:25.506Z,88.50
2018-02-11T14:06:08.846Z,89.30
2018-02-11T14:10:53.110Z,90.10
2018-02-11T14:15:36.747Z,89.40
2018-02-11T14:20:20.082Z,91.20
2018-02-11T14:25:03.441Z,92.90
2018-02-11T14:29:46.839Z,95.20
2018-02-11T14:34:30.188Z,96.10
2018-02-11T14:39:14.578Z,97.70
2018-02-11T14:43:57.977Z,97.70
2018-02-11T14:48:41.312Z,98.00
2018-02-11T14:53:24.669Z,99.20
2018-02-11T14:58:08.017Z,99.90
2018-02-11T15:02:54.465Z,99.90
2018-02-11T15:07:39.317Z,99.90
2018-02-11T15:12:23.536Z,99.90
2018-02-11T15:17:06.876Z,99.90
2018-02-11T15:21:50.227Z,99.90
2018-02-11T15:26:33.822Z,99.90
2018-02-11T15:31:17.123Z,99.90
2018-02-11T15:36:01.275Z,99.90
2018-02-11T15:40:44.611Z,99.90
2018-02-11T15:45:29.016Z,99.90
2018-02-11T15:50:12.380Z,99.90
2018-02-11T15:54:55.772Z,99.90
2018-02-11T15:59:39.133Z,99.90
2018-02-11T16:04:22.500Z,99.90
2018-02-11T16:09:06.090Z,99.90
2018-02-11T16:13:49.577Z,99.90
2018-02-11T16:18:32.950Z,99.90
2018-02-11T16:23:16.370Z,99.90
2018-02-11T16:27:59.810Z,99.90
2018-02-11T16:32:43.450Z,99.20
2018-02-11T16:37:26.750Z,98.70
2018-02-11T16:42:11.146Z,98.20
2018-02-11T16:46:54.540Z,97.90
2018-02-11T16:51:53.311Z,97.20
2018-02-11T16:56:40.108Z,97.00
2018-02-11T17:01:24.431Z,97.50
2018-02-11T17:06:07.738Z,96.80
2018-02-11T17:10:51.046Z,97.00
2018-02-11T17:15:34.433Z,96.50
2018-02-11T17:20:17.881Z,95.80
2018-02-11T17:25:01.214Z,96.10
2018-02-11T17:29:44.501Z,96.10
2018-02-11T17:34:28.638Z,95.70
2018-02-11T17:39:11.935Z,95.70
2018-02-11T17:43:55.295Z,95.60
2018-02-11T17:48:38.659Z,95.70
2018-02-11T17:53:21.954Z,95.70
2018-02-11T17:58:05.359Z,95.80
2018-02-11T18:02:49.337Z,95.80
2018-02-11T18:07:32.956Z,96.10
2018-02-11T18:12:17.927Z,95.70
2018-02-11T18:17:01.371Z,95.70
2018-02-11T18:21:46.159Z,95.50
2018-02-11T18:26:30.324Z,95.80
2018-02-11T18:31:13.747Z,95.70
2018-02-11T18:35:58.168Z,95.90
2018-02-11T18:40:41.678Z,95.90
2018-02-11T18:45:25.349Z,95.90
2018-02-11T18:50:09.278Z,95.90
2018-02-11T18:54:53.034Z,95.60
2018-02-11T18:59:36.480Z,95.60
2018-02-11T19:04:19.894Z,95.60
2018-02-11T19:09:03.371Z,95.50
2018-02-11T19:13:46.964Z,95.50
2018-02-11T19:18:30.362Z,95.30
2018-02-11T19:23:13.832Z,95.30
2018-02-11T19:27:57.269Z,95.60
2018-02-11T19:32:40.707Z,95.80
2018-02-11T19:37:24.087Z,95.80
2018-02-11T19:42:07.909Z,95.80
2018-02-11T19:46:51.395Z,95.80
2018-02-11T19:51:35.562Z,95.80
2018-02-11T19:56:19.201Z,95.70
2018-02-11T20:01:02.575Z,95.70
2018-02-11T20:05:48.267Z,96.00
2018-02-11T20:10:33.605Z,95.60
2018-02-11T20:15:17.964Z,95.60
2018-02-11T20:20:02.212Z,95.60
2018-02-11T20:24:45.659Z,95.80
2018-02-11T20:29:29.949Z,95.60
2018-02-11T20:34:14.976Z,95.50
2018-02-11T20:38:59.547Z,95.40
2018-02-11T20:43:43.091Z,95.30
2018-02-11T20:48:26.536Z,95.30
2018-02-11T20:53:10.163Z,95.10
2018-02-11T20:57:54.375Z,94.90
2018-02-11T21:02:38.585Z,95.00
2018-02-11T21:07:21.970Z,95.00
2018-02-11T21:12:05.621Z,94.80
2018-02-11T21:16:51.542Z,95.20
2018-02-11T21:21:34.908Z,94.80
2018-02-11T21:26:18.994Z,94.90
2018-02-11T21:31:03.409Z,94.80
2018-02-11T21:35:46.889Z,94.90
2018-02-11T21:40:30.235Z,95.10
2018-02-11T21:45:13.727Z,94.90
2018-02-11T21:49:57.437Z,95.30
2018-02-11T21:54:40.837Z,95.40
2018-02-11T21:59:24.323Z,95.80
2018-02-11T22:04:07.885Z,96.90
2018-02-11T22:08:51.263Z,97.90
2018-02-11T22:13:34.661Z,99.00
2018-02-11T22:18:18.078Z,99.60
2018-02-11T22:23:01.581Z,99.90
2018-02-11T22:27:45.077Z,99.90
2018-02-11T22:32:28.577Z,99.90
2018-02-11T22:37:12.319Z,99.90
2018-02-11T22:41:55.730Z,99.90
2018-02-11T22:46:39.082Z,99.90
2018-02-11T22:51:22.580Z,99.90
2018-02-11T22:56:06.063Z,99.90
2018-02-11T23:00:49.506Z,99.90
2018-02-11T23:05:32.877Z,99.90
2018-02-11T23:10:16.970Z,99.90
2018-02-11T23:15:00.345Z,99.90
2018-02-11T23:19:51.363Z,99.90
2018-02-11T23:24:34.726Z,99.90
2018-02-11T23:29:18.007Z,99.90
2018-02-11T23:34:01.324Z,99.90
2018-02-11T23:38:45.597Z,99.90
2018-02-11T23:43:29.728Z,99.90
2018-02-11T23:48:13.134Z,99.90
2018-02-11T23:52:56.460Z,99.90
2018-02-11T23:57:39.909Z,99.90
